Miscellaneous Local Product
Issued by NWS

Home | Current Version | Previous Version | Text Only | Print | Product List | Glossary On
Versions: 1 2 3 4 5 6 7 8 9 10 11 12 13 14 15 16 17 18 19 20 21 22 23 24 25 26 27 28 29 30 31 32 33 34 35 36 37 38 39 40 41 42 43 44 45 46 47 48 49 50
000
AXUS44 KLUB 220428
MISWTM
METAR KAD1 220420Z 23007KT 16/M04 A2993 RMK A01 SLP057 T01611045 RH 23%=
METAR KAHS 220420Z 17007KT 22/11 A2987 RMK A01 SLP082 T02220113 RH 50%=
METAR KAI1 220420Z 18009KT 16/01 A2989 RMK A01 SLP070 T01640019 RH 37%=
METAR KAM1 220420Z 28005KT 12/03 A2990 RMK A01 SLP068 T01280037 RH 53%=
METAR KAM2 220420Z 17004KT 13/05 A2987 RMK A01 SLP064 T01350055 RH 58%=
METAR KAM3 220420Z 15005KT 14/04 A2987 RMK A01 SLP063 T01440043 RH 50%=
METAR KAMH 220420Z 20010KT 19/M03 A2989 RMK A01 SLP058 T01971037 RH 20%=
METAR KANS 220420Z 18006KT 21/08 A2993 RMK A01 SLP081 T02110089 RH 46%=
METAR KAOS 220420Z 19009KT 18/M02 A2989 RMK A01 SLP065 T01851026 RH 23%=
METAR KARS 220420Z 18009KT 14/02 A2989 RMK A01 SLP070 T01480027 RH 44%=
METAR KASR 220420Z 16011KT 22/14 A2986 RMK A01 SLP089 T02250144 RH 61%=
METAR KASU 220420Z 16005KT 21/13 A2994 RMK A01 SLP112 T02170133 RH 61%=
METAR KBI1 220420Z 16006KT 19/14 A2996 RMK A01 SLP107 T01980145 RH 71%=
METAR KBO1 220420Z 28010KT 13/M02 A2995 RMK A01 SLP062 T01391024 RH 32%=
METAR KBR1 220420Z 20003KT 16/M03 A2990 RMK A01 SLP058 T01611038 RH 25%=
METAR KBWS 220420Z 23008KT 19/00 A2991 RMK A01 SLP072 T01910003 RH 28%=
METAR KBY1 220420Z 32001KT 12/01 A2987 RMK A01 SLP070 T01270017 RH 46%=
METAR KCA1 220420Z 15006KT 19/13 A2979 RMK A01 SLP052 T01930135 RH 69%=
METAR KCA2 220420Z 11001KT 28/M02 A2982 RMK A01 SLP066 T02871023 RH 13%=
METAR KCES 220420Z 18008KT 16/00 A2985 RMK A01 SLP067 T01670009 RH 34%=
METAR KCH1 220420Z 16007KT 20/14 A2993 RMK A01 SLP111 T02080149 RH 68%=
METAR KCL1 220420Z 17003KT 22/M04 A2988 RMK A01 SLP057 T02291046 RH 15%=
METAR KCL2 220420Z 16013KT 20/14 A2993 RMK A01 SLP108 T02080149 RH 68%=
METAR KCO1 220420Z 12012KT 23/13 A2989 RMK A01 SLP079 T02320132 RH 53%=
METAR KCO2 220420Z 16011KT 22/13 A2990 RMK A01 SLP096 T02260130 RH 54%=
METAR KCR1 220420Z 17009KT 22/14 A2984 RMK A01 SLP090 T02200148 RH 63%=
METAR KCR2 220420Z 17018KT 22/15 A2991 RMK A01 SLP086 T02270150 RH 61%=
METAR KCXS 220420Z 16014KT 22/14 A2982 RMK A01 SLP071 T02210143 RH 63%=
METAR KDC1 220420Z 17005KT 18/02 A2993 RMK A01 SLP071 T01850020 RH 33%=
METAR KDMS 220420Z 16003KT 19/M02 A2990 RMK A01 SLP054 T01951020 RH 23%=
METAR KDO1 220420Z 16006KT 21/13 A2984 RMK A01 SLP072 T02120134 RH 60%=
METAR KDR1 220420Z 23009KT 15/M07 A2994 RMK A01 SLP061 T01581076 RH 19%=
METAR KDVS 220420Z 23010KT 18/M03 A2992 RMK A01 SLP069 T01891032 RH 22%=
METAR KEA1 220420Z 20011KT 21/M03 A2990 RMK A01 SLP056 T02131035 RH 18%=
METAR KEN1 220420Z 19004KT 14/00 A2990 RMK A01 SLP060 T01410003 RH 38%=
METAR KES1 220420Z 15011KT 21/13 A2981 RMK A01 SLP069 T02120135 RH 61%=
METAR KFAS 220420Z 28003KT 12/01 A2992 RMK A01 SLP064 T01220015 RH 48%=
METAR KFL1 220420Z 04005KT 08/M05 A3007 RMK A01 SLP989 T00811053 RH 37%=
METAR KFLS 220420Z 17011KT 20/01 A2988 RMK A01 SLP065 T02070010 RH 27%=
METAR KFR1 220420Z 19007KT 19/02 A2986 RMK A01 SLP062 T01900026 RH 33%=
METAR KFVS 220420Z 16009KT 20/09 A2989 RMK A01 SLP085 T02000094 RH 52%=
METAR KGDS 220420Z 15015KT 22/13 A2981 RMK A01 SLP076 T02270139 RH 60%=
METAR KGGS 220420Z 17007KT 20/10 A2989 RMK A01 SLP084 T02020108 RH 56%=
METAR KGHS 220420Z 18018KT 23/10 A2989 RMK A01 SLP074 T02360101 RH 43%=
METAR KGO1 220420Z 21006KT 16/00 A2988 RMK A01 SLP068 T01650005 RH 33%=
METAR KGU1 220420Z 22007KT 21/M03 A3005 RMK A01 SLP044 T02161034 RH 18%=
METAR KHA1 220420Z 17013KT 23/14 A2986 RMK A01 SLP092 T02330140 RH 57%=
METAR KHA2 220420Z 23007KT 15/M01 A2990 RMK A01 SLP065 T01521013 RH 32%=
METAR KHA3 220420Z 16016KT 22/14 A2983 RMK A01 SLP080 T02220148 RH 62%=
METAR KHES 220420Z 22004KT 14/01 A2990 RMK A01 SLP063 T01440016 RH 42%=
METAR KHO1 220420Z 25009KT 22/M05 A2995 RMK A01 SLP074 T02241052 RH 15%=
METAR KHRS 220420Z 21007KT 17/M01 A2990 RMK A01 SLP061 T01781017 RH 26%=
METAR KJTS 220420Z 15009KT 22/12 A2985 RMK A01 SLP083 T02200128 RH 58%=
METAR KJU1 220420Z 15009KT 21/17 A2998 RMK A01 SLP133 T02120172 RH 78%=
METAR KKN1 220420Z 17014KT 23/14 A2984 RMK A01 SLP089 T02340145 RH 59%=
METAR KLA1 220420Z 13003KT 22/14 A2994 RMK A01 SLP109 T02250141 RH 58%=
METAR KLBW 220420Z 21008KT 22/M00 A2989 RMK A01 SLP066 T02201007 RH 22%=
METAR KLD1 220420Z 21010KT 20/M02 A2991 RMK A01 SLP069 T02001026 RH 21%=
METAR KLE1 220420Z 30002KT 21/00 A2981 RMK A01 SLP067 T02170009 RH 25%=
METAR KLES 220420Z 18008KT 19/10 A2992 RMK A01 SLP085 T01980102 RH 55%=
METAR KLO1 220420Z 18019KT 22/13 A2992 RMK A01 SLP091 T02270137 RH 56%=
METAR KMC1 220420Z 13005KT 20/15 A2998 RMK A01 SLP123 T02060158 RH 74%=
METAR KMC4 220420Z 13010KT 22/15 A2994 RMK A01 SLP101 T02250153 RH 63%=
METAR KMC5 220420Z 23004KT 21/M02 A2987 RMK A01 SLP061 T02111020 RH 20%=
METAR KMCS 220420Z 15006KT 19/04 A2984 RMK A01 SLP062 T01920047 RH 39%=
METAR KMD1 220420Z 14006KT 20/16 A2998 RMK A01 SLP129 T02050163 RH 76%=
METAR KME1 220420Z 18008KT 21/14 A2995 RMK A01 SLP112 T02140147 RH 65%=
METAR KMES 220420Z 12003KT 20/10 A2982 RMK A01 SLP072 T02000106 RH 56%=
METAR KMNS 220420Z 21012KT 20/M07 A2990 RMK A01 SLP058 T02081072 RH 14%=
METAR KMUS 220420Z 23005KT 18/M03 A2990 RMK A01 SLP057 T01821037 RH 22%=
METAR KNOR 220420Z 19010KT 22/03 A2981 RMK A01 SLP067 T02250037 RH 29%=
METAR KOD1 220420Z 16017KT 22/14 A2983 RMK A01 SLP088 T02270142 RH 58%=
METAR KOES 220420Z 17011KT 22/05 A2991 RMK A01 SLP077 T02200053 RH 34%=
METAR KONS 220420Z 20009KT 16/M02 A2989 RMK A01 SLP062 T01661028 RH 26%=
METAR KPA1 220420Z 25005KT 14/03 A2990 RMK A01 SLP068 T01490036 RH 46%=
METAR KPAD 220420Z 18011KT 19/13 A2984 RMK A01 SLP079 T01950139 RH 73%=
METAR KPD1 220420Z 21003KT 22/M03 A2989 RMK A01 SLP059 T02211031 RH 18%=
METAR KPD2 220420Z 15001KT 18/M00 A2985 RMK A01 SLP065 T01841006 RH 27%=
METAR KPD3 220420Z 24008KT 15/00 A2984 RMK A01 SLP069 T01580002 RH 34%=
METAR KPD4 220420Z 36011KT 17/06 A2987 RMK A01 SLP067 T01700060 RH 48%=
METAR KPFS 220420Z 16014KT 21/12 A2983 RMK A01 SLP078 T02150125 RH 58%=
METAR KPG1 220420Z 03016KT 24/11 A2990 RMK A01 SLP076 T02420119 RH 46%=
METAR KPMS 220420Z 22005KT 18/00 A2985 RMK A01 SLP057 T01850005 RH 30%=
METAR KPPS 220420Z 20008KT 17/M02 A2993 RMK A01 SLP071 T01701023 RH 26%=
METAR KPT1 220420Z 20009KT 23/07 A2987 RMK A01 SLP076 T02330070 RH 35%=
METAR KPVS 220420Z 18008KT 17/01 A2988 RMK A01 SLP062 T01790010 RH 32%=
METAR KQU1 220420Z 22012KT 22/00 A2985 RMK A01 SLP067 T02240008 RH 23%=
METAR KREE 220420Z 21010KT 18/00 A2989 RMK A01 SLP068 T01810003 RH 30%=
METAR KRLS 220420Z 18008KT 17/02 A2989 RMK A01 SLP077 T01720024 RH 37%=
METAR KRO1 220420Z 17012KT 22/13 A2988 RMK A01 SLP090 T02250135 RH 56%=
METAR KRRS 220420Z 21005KT 18/05 A2986 RMK A01 SLP074 T01860055 RH 43%=
METAR KSB1 220420Z 10002KT 20/M03 A3000 RMK A01 SLP067 T02061035 RH 19%=
METAR KSC1 220420Z 14011KT 21/13 A2994 RMK A01 SLP103 T02150137 RH 61%=
METAR KSDS 220420Z 21009KT 14/M02 A2992 RMK A01 SLP072 T01491029 RH 28%=
METAR KSE1 220420Z 15011KT 22/14 A2985 RMK A01 SLP095 T02210143 RH 63%=
METAR KSE2 220420Z 14014KT 19/16 A2999 RMK A01 SLP129 T01970165 RH 81%=
METAR KSGV 220420Z 23007KT 19/M00 A2991 RMK A01 SLP072 T01981006 RH 25%=
METAR KSLS 220420Z 19009KT 15/06 A2989 RMK A01 SLP076 T01560063 RH 54%=
METAR KSM1 220420Z 17010KT 20/M00 A2992 RMK A01 SLP077 T02001007 RH 24%=
METAR KSP1 220420Z 19010KT 21/07 A2985 RMK A01 SLP077 T02130073 RH 41%=
METAR KSP2 220420Z 18007KT 16/02 A2987 RMK A01 SLP067 T01680027 RH 38%=
METAR KST1 220420Z 17017KT 21/13 A2994 RMK A01 SLP096 T02140137 RH 62%=
METAR KST2 220420Z 17018KT 23/15 A2987 RMK A01 SLP097 T02380152 RH 58%=
METAR KST3 220420Z 23013KT 17/01 A2986 RMK A01 SLP058 T01790011 RH 32%=
METAR KSVS 220420Z 23008KT 14/M00 A2988 RMK A01 SLP069 T01441000 RH 37%=
METAR KSW1 220420Z 16012KT 22/13 A2993 RMK A01 SLP099 T02210134 RH 58%=
METAR KSYS 220420Z 16011KT 21/12 A2989 RMK A01 SLP087 T02170122 RH 56%=
METAR KTA1 220420Z 17014KT 22/12 A2992 RMK A01 SLP083 T02290122 RH 50%=
METAR KTAS 220420Z 17009KT 18/04 A2990 RMK A01 SLP077 T01860042 RH 38%=
METAR KTAT 220420Z 20008KT 14/M04 A2995 RMK A01 SLP072 T01481044 RH 26%=
METAR KTH1 220420Z 16008KT 21/15 A2988 RMK A01 SLP105 T02150152 RH 66%=
METAR KTIS 220420Z 17006KT 15/M00 A2989 RMK A01 SLP064 T01591006 RH 32%=
METAR KTUR 220420Z 22008KT 18/03 A2983 RMK A01 SLP067 T01870032 RH 36%=
METAR KUM1 220420Z 25007KT 14/04 A2991 RMK A01 SLP064 T01470042 RH 49%=
METAR KVA1 220420Z 19003KT 21/M04 A2996 RMK A01 SLP070 T02121040 RH 18%=
METAR KVP1 220420Z 19008KT 15/M00 A2989 RMK A01 SLP067 T01501008 RH 33%=
METAR KWA1 220420Z 16006KT 22/14 A2995 RMK A01 SLP117 T02220146 RH 61%=
METAR KWE1 220420Z 17015KT 22/14 A2985 RMK A01 SLP093 T02280140 RH 57%=
METAR KWE2 220420Z 19010KT 20/06 A2992 RMK A01 SLP080 T02000066 RH 41%=
METAR KWOS 220420Z 20009KT 20/00 A2990 RMK A01 SLP070 T02010002 RH 26%=
METAR KWT1 220420Z 17009KT 21/12 A2990 RMK A01 SLP092 T02160127 RH 57%=
METAR KWVS 220420Z 19007KT 19/04 A2987 RMK A01 SLP076 T01980043 RH 36%=

$$


USA.gov is the U.S. government's official web portal to all federal, state and local government web resources and services.